Time;durP1;ratioP1;P1;durP2;ratioP2;P2;SDS_P1;SDS_P2;PMS_P1;PMS_P2;Temp;Humidity;BMP_temperature;BMP_pressure;BME280_temperature;BME280_humidity;BME280_pressure;Samples;Min_cycle;Max_cycle;Signal;HPM_P1;HPM_P2
2023/06/28 00:00:04;;;;;;;7.35;3.90;;;12.80;99.90;;;;;;4984870;28;20046;-76
2023/06/28 00:02:35;;;;;;;7.82;3.92;;;12.80;99.90;;;;;;4981567;28;20042;-76
2023/06/28 00:05:07;;;;;;;7.85;3.72;;;12.80;99.90;;;;;;4980157;28;20133;-78
2023/06/28 00:07:33;;;;;;;8.65;3.67;;;12.80;99.90;;;;;;4984477;28;20085;-77
2023/06/28 00:10:03;;;;;;;8.07;3.25;;;12.80;99.90;;;;;;4966755;28;20093;-78
2023/06/28 00:12:30;;;;;;;9.00;3.50;;;12.70;99.90;;;;;;4981556;28;20482;-77
2023/06/28 00:14:56;;;;;;;8.90;3.80;;;12.80;99.90;;;;;;4984996;28;20471;-78
2023/06/28 00:17:29;;;;;;;6.72;3.30;;;12.80;99.90;;;;;;4983083;28;20053;-78
2023/06/28 00:20:00;;;;;;;9.23;4.28;;;12.80;99.90;;;;;;4981376;28;20050;-78
2023/06/28 00:22:32;;;;;;;8.30;3.55;;;12.80;99.90;;;;;;4979861;28;20054;-78
2023/06/28 00:25:04;;;;;;;11.18;3.47;;;12.90;99.90;;;;;;4984005;28;20049;-78
2023/06/28 00:27:30;;;;;;;10.57;3.85;;;12.80;99.90;;;;;;4982865;28;20038;-78
2023/06/28 00:29:56;;;;;;;10.98;3.92;;;12.90;99.90;;;;;;4963483;28;20070;-78
2023/06/28 00:32:24;;;;;;;12.05;4.20;;;12.80;99.90;;;;;;4963777;28;20065;-77
2023/06/28 00:34:50;;;;;;;9.32;3.50;;;12.80;99.90;;;;;;4981123;28;20051;-77
2023/06/28 00:37:16;;;;;;;12.57;4.18;;;12.80;99.90;;;;;;4984018;28;20053;-78
2023/06/28 00:39:41;;;;;;;12.65;4.32;;;12.70;99.90;;;;;;4984153;28;20398;-78
2023/06/28 00:42:10;;;;;;;9.40;3.75;;;12.70;99.90;;;;;;4980071;28;20060;-79
2023/06/28 00:44:36;;;;;;;11.32;4.20;;;12.70;99.90;;;;;;4979960;28;20046;-79
2023/06/28 00:47:03;;;;;;;11.35;4.85;;;12.80;99.90;;;;;;4981212;28;20760;-77
2023/06/28 00:49:31;;;;;;;13.15;4.65;;;12.80;99.90;;;;;;4982727;28;20446;-77
2023/06/28 00:51:58;;;;;;;11.00;4.15;;;12.90;99.90;;;;;;4982158;28;20101;-77
2023/06/28 00:54:24;;;;;;;25.25;5.03;;;12.80;99.90;;;;;;5011605;23;20136;-77
2023/06/28 00:56:51;;;;;;;10.40;4.20;;;12.80;99.90;;;;;;5041615;28;20135;-77
2023/06/28 00:59:17;;;;;;;8.65;4.30;;;12.80;99.90;;;;;;5039308;28;20055;-77
2023/06/28 01:01:43;;;;;;;11.90;4.22;;;12.90;99.90;;;;;;5040031;28;20049;-78
2023/06/28 01:04:09;;;;;;;11.25;4.32;;;12.80;99.90;;;;;;5021368;28;20401;-78
2023/06/28 01:06:37;;;;;;;12.50;4.65;;;12.80;99.90;;;;;;5013768;28;20033;-78
2023/06/28 01:09:07;;;;;;;10.80;4.35;;;12.80;99.90;;;;;;5037836;28;20053;-77
2023/06/28 01:11:33;;;;;;;12.70;4.50;;;12.80;99.90;;;;;;5040389;28;20088;-77
2023/06/28 01:14:00;;;;;;;11.10;5.03;;;12.90;99.90;;;;;;5024369;28;20064;-77
2023/06/28 01:16:26;;;;;;;12.05;5.07;;;12.90;99.90;;;;;;5041821;28;20041;-77
2023/06/28 01:18:52;;;;;;;12.77;4.78;;;12.90;99.90;;;;;;5039583;28;20037;-77
2023/06/28 01:21:19;;;;;;;11.85;4.55;;;13.00;99.90;;;;;;5037981;28;20378;-76
2023/06/28 01:23:45;;;;;;;13.52;4.55;;;13.00;99.90;;;;;;5037843;28;20053;-77
2023/06/28 01:26:12;;;;;;;12.90;4.93;;;13.00;99.90;;;;;;5038056;28;20120;-77
2023/06/28 01:28:38;;;;;;;9.55;4.82;;;13.00;99.90;;;;;;5038481;28;20087;-77
2023/06/28 01:31:05;;;;;;;13.18;5.53;;;13.00;99.90;;;;;;5041373;28;20084;-77
2023/06/28 01:33:30;;;;;;;14.35;5.25;;;13.10;99.90;;;;;;5042365;28;20037;-77
2023/06/28 01:35:57;;;;;;;10.90;4.75;;;13.00;99.90;;;;;;5039501;28;20041;-77
2023/06/28 01:38:23;;;;;;;17.27;4.78;;;13.30;99.90;;;;;;5037122;28;20050;-77
2023/06/28 01:40:51;;;;;;;8.77;4.30;;;13.00;99.90;;;;;;5039184;28;20847;-77
2023/06/28 01:43:18;;;;;;;12.63;5.40;;;12.90;99.90;;;;;;5041826;28;20063;-77
2023/06/28 01:45:44;;;;;;;10.98;4.82;;;13.00;99.90;;;;;;5040896;28;20448;-77
2023/06/28 01:48:09;;;;;;;12.98;4.70;;;12.90;99.90;;;;;;5038329;28;20052;-77
2023/06/28 01:50:35;;;;;;;10.85;4.80;;;13.30;99.90;;;;;;5037595;28;20508;-77
2023/06/28 01:53:03;;;;;;;9.00;4.78;;;13.30;99.90;;;;;;5039046;28;20128;-77
2023/06/28 01:55:29;;;;;;;12.45;5.43;;;13.00;99.90;;;;;;5039810;28;20057;-77
2023/06/28 01:57:56;;;;;;;14.23;6.22;;;13.00;99.90;;;;;;5040472;28;20044;-77
2023/06/28 02:00:22;;;;;;;10.13;5.65;;;13.10;99.90;;;;;;5039034;28;20106;-77
2023/06/28 02:02:50;;;;;;;11.57;4.82;;;13.10;99.90;;;;;;5037264;28;20095;-77
2023/06/28 02:05:16;;;;;;;12.63;5.10;;;13.10;99.90;;;;;;5038062;28;20452;-77
2023/06/28 02:07:41;;;;;;;15.45;5.18;;;13.10;99.90;;;;;;5041772;28;20037;-77
2023/06/28 02:10:09;;;;;;;13.80;4.72;;;13.10;99.90;;;;;;5041327;28;20087;-77
2023/06/28 02:12:35;;;;;;;14.90;4.95;;;13.10;99.90;;;;;;5041801;28;20049;-77
2023/06/28 02:15:02;;;;;;;15.73;4.75;;;13.10;99.90;;;;;;5041185;28;20056;-77
2023/06/28 02:17:31;;;;;;;11.32;4.22;;;13.50;99.90;;;;;;5042850;28;20508;-77
2023/06/28 02:19:57;;;;;;;10.90;4.75;;;13.20;99.90;;;;;;5045559;28;20045;-77
2023/06/28 02:22:23;;;;;;;11.45;5.18;;;13.10;99.90;;;;;;5045542;28;20089;-77
2023/06/28 02:24:48;;;;;;;14.63;5.35;;;13.10;99.90;;;;;;5042135;28;20119;-77
2023/06/28 02:27:14;;;;;;;10.05;5.03;;;13.10;99.90;;;;;;5041116;28;20491;-77
2023/06/28 02:29:40;;;;;;;15.20;6.22;;;13.20;99.90;;;;;;5041961;28;20085;-77
2023/06/28 02:32:06;;;;;;;14.57;5.95;;;13.10;99.90;;;;;;5043815;28;20080;-77
2023/06/28 02:34:32;;;;;;;13.88;5.88;;;13.20;99.90;;;;;;5043633;28;20056;-78
2023/06/28 02:36:58;;;;;;;13.32;5.78;;;13.20;99.90;;;;;;5042529;28;20055;-77
2023/06/28 02:39:24;;;;;;;13.45;5.85;;;13.30;99.90;;;;;;5040215;28;20053;-77
2023/06/28 02:41:50;;;;;;;13.35;5.65;;;13.60;99.90;;;;;;5040855;28;20053;-78
2023/06/28 02:44:16;;;;;;;17.23;6.05;;;13.30;99.90;;;;;;5027028;28;20033;-77
2023/06/28 02:46:41;;;;;;;12.57;5.43;;;13.40;99.90;;;;;;5043772;28;20077;-77
2023/06/28 02:49:07;;;;;;;11.43;5.90;;;13.40;99.90;;;;;;5041586;28;20158;-77
2023/06/28 02:51:33;;;;;;;13.05;6.65;;;13.40;99.90;;;;;;5045801;28;20045;-77
2023/06/28 02:53:59;;;;;;;13.93;6.55;;;13.40;99.90;;;;;;5043059;28;20057;-77
2023/06/28 02:56:25;;;;;;;15.65;6.43;;;13.40;99.90;;;;;;5039789;28;20140;-77
2023/06/28 02:58:51;;;;;;;11.48;5.82;;;13.50;99.90;;;;;;5040274;28;20045;-77
2023/06/28 03:01:20;;;;;;;12.50;5.57;;;13.50;99.90;;;;;;5041882;28;20059;-77
2023/06/28 03:03:48;;;;;;;18.40;7.03;;;13.50;99.90;;;;;;5043430;28;20040;-77
2023/06/28 03:06:17;;;;;;;11.68;6.35;;;13.60;99.90;;;;;;5042549;28;20049;-77
2023/06/28 03:08:43;;;;;;;13.93;6.43;;;13.90;99.90;;;;;;5041236;28;20103;-76
2023/06/28 03:11:09;;;;;;;15.65;6.55;;;13.70;99.90;;;;;;5040885;28;20408;-77
2023/06/28 03:13:35;;;;;;;15.07;6.15;;;13.70;99.90;;;;;;5043791;28;20436;-77
2023/06/28 03:16:01;;;;;;;12.98;6.47;;;13.70;99.90;;;;;;5045751;28;20103;-77
2023/06/28 03:18:26;;;;;;;11.52;6.82;;;13.70;99.90;;;;;;5040209;28;20473;-77
2023/06/28 03:20:52;;;;;;;15.15;6.13;;;13.80;99.90;;;;;;5043076;28;20052;-78
2023/06/28 03:23:18;;;;;;;10.85;6.30;;;13.80;99.90;;;;;;5043773;28;20048;-77
2023/06/28 03:25:44;;;;;;;14.07;6.03;;;13.80;99.90;;;;;;5042102;28;20447;-77
2023/06/28 03:28:10;;;;;;;13.68;6.60;;;14.00;99.90;;;;;;5041081;28;20077;-76
2023/06/28 03:30:36;;;;;;;15.85;5.95;;;13.90;99.90;;;;;;5041696;28;20100;-76
2023/06/28 03:33:03;;;;;;;14.65;5.80;;;13.90;99.90;;;;;;5044322;28;20045;-76
2023/06/28 03:35:29;;;;;;;11.95;6.70;;;13.90;99.90;;;;;;5044326;28;20049;-77
2023/06/28 03:37:55;;;;;;;11.90;6.60;;;13.90;99.90;;;;;;5040912;28;20053;-78
2023/06/28 03:40:22;;;;;;;13.82;6.03;;;14.00;99.90;;;;;;5040600;28;20088;-77
2023/06/28 03:42:48;;;;;;;13.82;7.57;;;14.00;99.90;;;;;;5039077;28;20077;-78
2023/06/28 03:45:15;;;;;;;14.63;6.65;;;14.00;99.90;;;;;;5042608;28;20115;-77
2023/06/28 03:47:41;;;;;;;11.65;5.95;;;14.00;99.90;;;;;;5042787;28;20060;-78
2023/06/28 03:50:07;;;;;;;14.48;6.38;;;14.00;99.90;;;;;;5041121;28;20484;-78
2023/06/28 03:52:36;;;;;;;14.30;6.00;;;14.00;99.90;;;;;;5040829;28;20116;-77
2023/06/28 03:55:02;;;;;;;11.63;6.45;;;14.20;99.90;;;;;;5039400;28;20049;-77
2023/06/28 03:57:29;;;;;;;12.82;6.32;;;14.10;99.90;;;;;;5041847;28;20125;-78
2023/06/28 03:59:55;;;;;;;13.07;6.93;;;14.10;99.90;;;;;;5043848;28;20095;-77
2023/06/28 04:02:21;;;;;;;15.38;6.70;;;14.10;99.90;;;;;;5041523;28;20552;-77
2023/06/28 04:04:46;;;;;;;16.83;6.43;;;14.10;99.90;;;;;;5039014;28;20136;-76
2023/06/28 04:07:12;;;;;;;11.43;6.07;;;14.20;99.90;;;;;;5040543;28;20137;-76
2023/06/28 04:09:38;;;;;;;12.20;6.72;;;14.20;99.90;;;;;;5042042;28;20804;-76
2023/06/28 04:12:05;;;;;;;14.13;6.47;;;14.20;99.90;;;;;;5043342;28;20067;-76
2023/06/28 04:14:30;;;;;;;14.68;7.35;;;14.20;99.90;;;;;;5040297;28;20114;-76
2023/06/28 04:16:56;;;;;;;11.13;5.28;;;14.30;99.90;;;;;;5039941;28;20432;-77
2023/06/28 04:19:22;;;;;;;15.05;5.85;;;14.30;99.90;;;;;;5040134;28;20037;-77
2023/06/28 04:21:47;;;;;;;10.30;5.75;;;14.20;99.90;;;;;;5042924;28;20087;-77
2023/06/28 04:24:13;;;;;;;12.13;6.22;;;14.30;99.90;;;;;;5042862;28;20037;-77
2023/06/28 04:26:39;;;;;;;8.93;5.85;;;14.30;99.90;;;;;;5040233;28;20056;-76
2023/06/28 04:29:05;;;;;;;15.00;6.38;;;14.30;99.90;;;;;;5038744;28;20053;-77
2023/06/28 04:31:30;;;;;;;9.60;5.05;;;14.30;99.90;;;;;;5021619;28;20103;-77
2023/06/28 04:33:57;;;;;;;10.50;5.28;;;14.30;99.90;;;;;;5040377;28;20167;-77
2023/06/28 04:36:25;;;;;;;12.05;5.47;;;14.40;99.90;;;;;;5024569;28;20056;-77
2023/06/28 04:38:54;;;;;;;12.40;5.22;;;14.40;99.90;;;;;;5042710;28;20444;-77
2023/06/28 04:41:27;;;;;;;10.30;5.13;;;14.50;99.90;;;;;;5041381;28;20053;-77
2023/06/28 04:43:58;;;;;;;13.85;6.00;;;14.50;99.90;;;;;;5040273;28;20553;-78
2023/06/28 04:46:26;;;;;;;11.52;5.55;;;14.50;99.90;;;;;;5038631;28;20457;-78
2023/06/28 04:48:53;;;;;;;12.13;5.10;;;14.60;99.90;;;;;;5039440;28;20092;-78
2023/06/28 04:51:20;;;;;;;15.63;5.85;;;14.60;99.90;;;;;;5038490;28;20136;-78
2023/06/28 04:53:46;;;;;;;13.50;5.78;;;14.60;99.90;;;;;;5039135;28;20068;-77
2023/06/28 04:56:12;;;;;;;12.32;4.88;;;14.70;99.90;;;;;;5039937;28;20061;-78
2023/06/28 04:58:38;;;;;;;8.50;5.00;;;14.70;99.90;;;;;;5042643;28;20048;-78
2023/06/28 05:01:10;;;;;;;13.82;5.25;;;14.80;99.90;;;;;;5024231;28;20168;-78
2023/06/28 05:03:38;;;;;;;10.65;4.88;;;14.70;99.90;;;;;;5030469;28;20034;-77
2023/06/28 05:06:07;;;;;;;9.60;4.43;;;14.80;99.90;;;;;;5021379;28;20050;-78
2023/06/28 05:08:34;;;;;;;7.60;4.72;;;14.80;99.90;;;;;;5041873;28;20442;-77
2023/06/28 05:11:00;;;;;;;10.48;4.40;;;14.80;99.90;;;;;;5041061;28;20102;-76
2023/06/28 05:13:26;;;;;;;8.45;4.85;;;14.80;99.90;;;;;;5041020;28;20412;-78
2023/06/28 05:15:51;;;;;;;11.30;5.20;;;14.80;99.90;;;;;;5037315;28;20056;-78
2023/06/28 05:18:18;;;;;;;10.15;4.55;;;14.80;99.90;;;;;;5039059;28;20092;-77
2023/06/28 05:20:44;;;;;;;8.93;4.95;;;14.90;99.90;;;;;;5040191;28;20048;-76
2023/06/28 05:23:13;;;;;;;9.95;5.07;;;14.90;99.90;;;;;;5040860;28;20048;-77
2023/06/28 05:25:40;;;;;;;10.23;4.32;;;15.00;99.90;;;;;;5039100;28;20056;-77
2023/06/28 05:28:07;;;;;;;9.05;4.30;;;14.90;99.90;;;;;;5037737;28;20443;-76
2023/06/28 05:30:33;;;;;;;9.02;4.82;;;15.00;99.90;;;;;;5020530;28;20060;-77
2023/06/28 05:33:01;;;;;;;9.45;4.50;;;15.00;99.90;;;;;;5029241;28;20045;-77
2023/06/28 05:35:31;;;;;;;9.63;5.13;;;15.00;99.90;;;;;;5028776;28;20175;-77
2023/06/28 05:37:57;;;;;;;7.13;4.07;;;15.20;99.90;;;;;;5028899;28;20053;-76
2023/06/28 05:40:23;;;;;;;8.30;4.07;;;15.10;99.90;;;;;;5028986;28;20515;-76
2023/06/28 05:42:48;;;;;;;9.43;4.82;;;15.20;99.90;;;;;;5029237;28;20038;-77
2023/06/28 05:45:14;;;;;;;9.20;4.20;;;15.30;99.90;;;;;;5028711;28;20582;-78
2023/06/28 05:47:40;;;;;;;11.85;4.03;;;15.30;99.90;;;;;;5029339;28;20132;-76
2023/06/28 05:50:06;;;;;;;8.55;4.45;;;15.30;99.90;;;;;;5028932;28;20049;-76
2023/06/28 05:52:31;;;;;;;12.68;4.30;;;15.30;99.90;;;;;;5028895;28;20045;-77
2023/06/28 05:54:57;;;;;;;7.35;4.05;;;15.40;99.90;;;;;;5029872;28;20081;-75
2023/06/28 05:57:23;;;;;;;10.13;4.60;;;15.40;99.90;;;;;;5038671;28;20103;-77
2023/06/28 05:59:48;;;;;;;8.38;4.57;;;15.40;99.90;;;;;;5035541;28;20049;-78
2023/06/28 06:02:14;;;;;;;8.82;4.40;;;15.40;99.90;;;;;;5038530;28;20045;-78
2023/06/28 06:04:40;;;;;;;13.23;4.80;;;15.50;99.90;;;;;;5037122;28;20045;-77
2023/06/28 06:07:05;;;;;;;8.68;4.57;;;15.50;99.90;;;;;;5038311;28;20091;-77
2023/06/28 06:09:32;;;;;;;12.10;4.80;;;15.50;99.90;;;;;;5039371;28;20045;-77
2023/06/28 06:11:57;;;;;;;8.65;5.10;;;15.50;99.90;;;;;;5040468;28;20060;-78
2023/06/28 06:14:23;;;;;;;10.88;5.55;;;15.50;99.90;;;;;;5039321;28;20128;-78
2023/06/28 06:16:49;;;;;;;16.67;6.60;;;15.60;99.90;;;;;;5019821;28;20460;-77
2023/06/28 06:19:14;;;;;;;11.13;5.28;;;15.60;99.90;;;;;;5037413;28;20096;-78
2023/06/28 06:21:40;;;;;;;13.13;5.53;;;15.60;99.90;;;;;;5023040;28;20056;-77
2023/06/28 06:24:07;;;;;;;10.70;5.97;;;15.60;99.90;;;;;;5040315;28;20045;-76
2023/06/28 06:26:36;;;;;;;9.95;5.68;;;15.60;99.90;;;;;;5039186;28;20515;-76
2023/06/28 06:29:02;;;;;;;10.85;6.25;;;15.70;99.90;;;;;;5038221;28;20088;-77
2023/06/28 06:31:29;;;;;;;13.45;5.85;;;15.60;99.90;;;;;;5036516;28;20034;-78
2023/06/28 06:34:01;;;;;;;14.75;6.28;;;15.60;99.90;;;;;;5040578;28;20084;-77
2023/06/28 06:36:29;;;;;;;9.63;6.65;;;15.60;99.90;;;;;;5041461;28;20060;-79
2023/06/28 06:38:59;;;;;;;14.00;5.90;;;15.60;99.90;;;;;;5038070;28;20080;-77
2023/06/28 06:41:25;;;;;;;13.68;6.65;;;15.70;99.90;;;;;;5038510;28;20482;-77
2023/06/28 06:43:51;;;;;;;15.25;7.03;;;15.70;99.90;;;;;;5038688;28;20132;-78
2023/06/28 06:46:20;;;;;;;10.82;6.45;;;15.70;99.90;;;;;;5040297;28;20117;-78
2023/06/28 06:48:49;;;;;;;14.95;6.28;;;15.70;99.90;;;;;;5041188;28;20059;-78
2023/06/28 06:51:14;;;;;;;17.85;6.57;;;15.70;99.90;;;;;;5038057;28;20095;-76
2023/06/28 06:53:40;;;;;;;14.57;6.40;;;15.70;99.90;;;;;;5037917;28;20069;-78
2023/06/28 06:56:06;;;;;;;14.38;5.88;;;15.70;99.90;;;;;;5044853;28;20416;-77
2023/06/28 06:58:32;;;;;;;13.45;6.63;;;15.70;99.90;;;;;;5022826;28;20053;-78
2023/06/28 07:00:57;;;;;;;12.35;6.22;;;15.70;99.90;;;;;;5041557;28;20049;-79
2023/06/28 07:03:24;;;;;;;16.35;6.35;;;15.70;99.90;;;;;;5043421;28;20057;-77
2023/06/28 07:05:50;;;;;;;16.88;6.97;;;15.70;99.90;;;;;;5044752;28;20049;-78
2023/06/28 07:08:16;;;;;;;11.75;6.20;;;15.70;99.90;;;;;;5044053;28;20044;-78
2023/06/28 07:10:42;;;;;;;14.43;6.97;;;15.80;99.90;;;;;;5040087;28;20132;-79
2023/06/28 07:13:09;;;;;;;15.80;7.30;;;15.80;99.90;;;;;;5041476;28;20124;-78
2023/06/28 07:15:34;;;;;;;12.45;6.82;;;15.90;99.90;;;;;;5043451;28;20048;-79
2023/06/28 07:18:00;;;;;;;15.68;6.63;;;15.90;99.90;;;;;;5043243;28;20037;-80
2023/06/28 07:20:26;;;;;;;15.77;6.88;;;15.90;99.90;;;;;;5043852;28;20033;-81
2023/06/28 07:22:51;;;;;;;11.57;6.45;;;15.90;99.90;;;;;;5039929;28;20056;-78
2023/06/28 07:25:18;;;;;;;11.65;6.68;;;16.00;99.90;;;;;;5041049;28;20509;-79
2023/06/28 07:27:43;;;;;;;16.85;6.75;;;16.00;99.90;;;;;;5042878;28;20092;-78
2023/06/28 07:30:09;;;;;;;13.45;6.50;;;16.00;99.90;;;;;;5044290;28;20041;-77
2023/06/28 07:32:35;;;;;;;15.57;6.82;;;16.10;99.90;;;;;;5043023;28;20125;-78
2023/06/28 07:35:01;;;;;;;16.55;6.47;;;16.10;99.90;;;;;;5032497;28;20125;-77
2023/06/28 07:37:26;;;;;;;13.85;6.70;;;16.20;99.90;;;;;;5040924;28;20048;-78
2023/06/28 07:39:52;;;;;;;14.90;5.90;;;16.20;99.90;;;;;;5042061;28;20033;-78
2023/06/28 07:42:21;;;;;;;15.60;5.78;;;16.20;99.90;;;;;;5042456;28;20048;-79
2023/06/28 07:44:47;;;;;;;10.25;5.57;;;16.20;99.90;;;;;;5044064;28;20095;-78
2023/06/28 07:47:13;;;;;;;10.75;5.78;;;16.20;99.90;;;;;;5031139;28;20495;-78
2023/06/28 07:49:38;;;;;;;16.02;6.03;;;16.20;99.90;;;;;;5040504;28;20049;-78
2023/06/28 07:52:05;;;;;;;10.95;5.47;;;16.20;99.90;;;;;;5040786;28;20041;-79
2023/06/28 07:54:31;;;;;;;12.73;5.97;;;16.30;99.90;;;;;;5043342;28;20049;-78
2023/06/28 07:56:56;;;;;;;12.18;6.40;;;16.30;99.90;;;;;;5042563;28;20053;-78
2023/06/28 07:59:22;;;;;;;14.27;5.88;;;16.30;99.90;;;;;;5041053;28;20041;-78
2023/06/28 08:01:49;;;;;;;13.65;6.38;;;16.30;99.90;;;;;;5040690;28;20057;-78
2023/06/28 08:04:16;;;;;;;15.88;6.10;;;16.30;99.90;;;;;;5040168;28;20112;-78
2023/06/28 08:06:46;;;;;;;12.85;5.72;;;16.30;99.90;;;;;;5024936;28;20118;-78
2023/06/28 08:09:11;;;;;;;16.05;6.88;;;16.30;99.90;;;;;;5041944;28;20045;-77
2023/06/28 08:11:37;;;;;;;12.52;6.82;;;16.30;99.90;;;;;;5040471;28;20049;-77
2023/06/28 08:14:03;;;;;;;13.20;6.75;;;16.30;99.90;;;;;;5040459;28;20079;-78
2023/06/28 08:16:28;;;;;;;12.13;6.03;;;16.20;99.90;;;;;;5040045;28;20053;-77
2023/06/28 08:18:54;;;;;;;13.63;6.57;;;16.30;99.90;;;;;;5043480;28;20033;-77
2023/06/28 08:21:20;;;;;;;12.77;6.75;;;16.30;99.90;;;;;;5042969;28;20775;-78
2023/06/28 08:23:45;;;;;;;12.57;6.93;;;16.30;99.90;;;;;;5039968;28;20048;-77
2023/06/28 08:26:11;;;;;;;14.77;6.43;;;16.40;99.90;;;;;;5039931;28;20034;-77
2023/06/28 08:28:36;;;;;;;16.33;6.78;;;16.40;99.90;;;;;;5022274;28;20060;-77
2023/06/28 08:31:02;;;;;;;11.85;6.65;;;16.40;99.90;;;;;;5041580;28;20052;-78
2023/06/28 08:33:28;;;;;;;12.00;6.72;;;16.40;99.90;;;;;;5043099;28;20052;-77
2023/06/28 08:35:53;;;;;;;10.60;6.82;;;16.40;99.90;;;;;;5039128;28;20049;-76
2023/06/28 08:38:19;;;;;;;13.75;6.75;;;16.40;99.90;;;;;;5039827;28;20145;-76
2023/06/28 08:40:45;;;;;;;12.90;7.40;;;16.40;99.90;;;;;;5038658;28;20053;-76
2023/06/28 08:43:16;;;;;;;12.77;6.75;;;16.40;99.90;;;;;;5041635;28;20079;-76
2023/06/28 08:45:43;;;;;;;12.30;7.75;;;16.50;99.90;;;;;;5042960;28;20080;-75
2023/06/28 08:48:09;;;;;;;13.30;7.72;;;16.50;99.90;;;;;;5040209;28;20132;-76
2023/06/28 08:50:38;;;;;;;13.07;6.97;;;16.50;99.90;;;;;;5039281;28;20046;-76
2023/06/28 08:53:08;;;;;;;13.77;8.10;;;16.50;99.90;;;;;;5039261;28;20059;-76
2023/06/28 08:55:34;;;;;;;11.18;7.07;;;16.50;99.90;;;;;;5041043;28;20053;-78
2023/06/28 08:58:01;;;;;;;14.50;7.68;;;16.50;99.90;;;;;;5024393;28;20096;-74
2023/06/28 09:00:27;;;;;;;13.45;8.00;;;16.50;99.90;;;;;;5038245;28;20049;-75
2023/06/28 09:02:53;;;;;;;14.02;8.63;;;16.50;99.90;;;;;;5038035;28;20059;-76
2023/06/28 09:05:19;;;;;;;14.38;8.13;;;16.60;99.90;;;;;;5040798;28;20591;-75
2023/06/28 09:07:48;;;;;;;13.00;7.82;;;16.60;99.90;;;;;;5023529;28;20056;-76
2023/06/28 09:10:15;;;;;;;16.05;9.00;;;16.60;99.90;;;;;;5040253;28;20049;-75
2023/06/28 09:12:41;;;;;;;13.07;8.68;;;16.60;99.90;;;;;;5037975;28;20098;-75
2023/06/28 09:15:07;;;;;;;15.00;9.25;;;16.60;99.90;;;;;;5039148;28;20041;-76
2023/06/28 09:17:33;;;;;;;16.25;9.45;;;16.60;99.90;;;;;;5040762;28;20053;-75
2023/06/28 09:20:15;;;;;;;14.10;9.35;;;16.70;99.90;;;;;;5039990;28;20048;-75
2023/06/28 09:22:41;;;;;;;14.82;8.95;;;16.70;99.90;;;;;;5039493;28;20053;-74
2023/06/28 09:25:07;;;;;;;13.85;9.15;;;16.60;99.90;;;;;;5037984;28;20068;-74
2023/06/28 09:27:32;;;;;;;15.98;8.95;;;16.70;99.90;;;;;;5039622;28;20645;-75
2023/06/28 09:30:00;;;;;;;16.15;9.27;;;16.70;99.90;;;;;;5042184;28;20405;-74
2023/06/28 09:32:39;;;;;;;15.90;9.63;;;16.80;99.90;;;;;;5041711;28;20068;-75
2023/06/28 09:35:11;;;;;;;21.17;10.13;;;16.80;99.90;;;;;;5029811;28;20049;-75
2023/06/28 09:37:38;;;;;;;14.77;9.40;;;16.90;99.90;;;;;;5037292;28;20056;-75
2023/06/28 09:40:06;;;;;;;18.40;10.65;;;16.90;99.90;;;;;;5028773;28;20045;-75
2023/06/28 09:42:32;;;;;;;15.55;9.85;;;16.90;99.90;;;;;;5020806;28;20053;-74
2023/06/28 09:44:58;;;;;;;14.38;9.55;;;16.80;99.90;;;;;;5040354;28;20401;-75
2023/06/28 09:47:31;;;;;;;16.55;11.18;;;16.90;99.90;;;;;;5040187;28;20045;-76
2023/06/28 09:50:00;;;;;;;16.42;10.23;;;16.90;99.90;;;;;;5040912;28;20049;-76
2023/06/28 09:52:26;;;;;;;14.82;9.77;;;16.90;99.90;;;;;;5036997;28;20077;-76
2023/06/28 09:54:52;;;;;;;15.80;9.82;;;16.90;99.90;;;;;;5036969;28;20072;-74
2023/06/28 09:57:18;;;;;;;17.02;9.57;;;16.90;99.90;;;;;;5040186;28;20036;-75
2023/06/28 09:59:45;;;;;;;17.00;9.95;;;17.00;99.90;;;;;;5040498;28;20052;-76
2023/06/28 10:02:15;;;;;;;19.65;10.57;;;16.90;99.90;;;;;;5040450;28;20041;-75
2023/06/28 10:04:42;;;;;;;15.35;10.23;;;16.80;99.90;;;;;;5037059;28;20045;-74
2023/06/28 10:07:10;;;;;;;14.38;9.38;;;16.90;99.90;;;;;;5036936;28;20076;-76
2023/06/28 10:09:39;;;;;;;13.95;9.63;;;16.90;99.90;;;;;;5041423;28;20563;-75
2023/06/28 10:12:14;;;;;;;17.48;9.98;;;16.90;99.90;;;;;;5040295;28;20704;-75
2023/06/28 10:14:41;;;;;;;;;;;17.00;99.90;;;;;;5038587;28;20045;-74
2023/06/28 10:17:08;;;;;;;17.67;10.57;;;17.00;99.90;;;;;;5037193;28;19921;-75
2023/06/28 10:19:34;;;;;;;17.85;10.75;;;17.10;99.90;;;;;;5040829;28;20049;-75
2023/06/28 10:22:00;;;;;;;17.60;10.10;;;17.20;99.90;;;;;;5040363;28;20068;-73
2023/06/28 10:24:31;;;;;;;14.52;10.18;;;17.20;99.90;;;;;;5041055;28;20039;-77
2023/06/28 10:27:02;;;;;;;14.32;9.40;;;17.20;99.90;;;;;;5038259;28;20116;-76
2023/06/28 10:29:29;;;;;;;15.68;10.27;;;17.20;99.90;;;;;;5020367;28;20156;-75
2023/06/28 10:31:55;;;;;;;15.73;9.63;;;17.20;99.90;;;;;;5031240;28;20128;-74
2023/06/28 10:34:22;;;;;;;15.25;11.10;;;17.20;99.90;;;;;;5040687;28;20091;-74
2023/06/28 10:36:48;;;;;;;19.63;11.38;;;17.20;99.90;;;;;;5042101;28;20046;-76
2023/06/28 10:39:15;;;;;;;16.55;11.18;;;17.20;99.90;;;;;;5043509;28;20048;-74
2023/06/28 10:41:41;;;;;;;16.40;11.35;;;17.20;99.90;;;;;;5043844;28;20060;-75
2023/06/28 10:44:07;;;;;;;15.40;11.25;;;17.20;99.90;;;;;;5032039;28;20096;-76
2023/06/28 10:46:33;;;;;;;18.90;11.65;;;17.20;99.90;;;;;;5040408;28;20404;-74
2023/06/28 10:48:59;;;;;;;19.60;11.60;;;17.20;99.90;;;;;;5025226;28;20489;-76
2023/06/28 10:51:33;;;;;;;15.27;11.27;;;17.20;99.90;;;;;;5043675;28;20044;-76
2023/06/28 10:54:10;;;;;;;18.63;11.60;;;17.30;99.90;;;;;;5042590;28;20064;-76
2023/06/28 10:56:37;;;;;;;15.50;11.15;;;17.30;99.90;;;;;;5041626;28;20053;-76
2023/06/28 10:59:06;;;;;;;16.48;10.88;;;17.30;99.90;;;;;;5040894;28;20553;-75
2023/06/28 11:01:54;;;;;;;14.98;11.27;;;17.30;99.90;;;;;;5043207;28;20053;-75
2023/06/28 11:04:25;;;;;;;17.40;11.95;;;17.30;99.90;;;;;;5040943;28;20067;-76
2023/06/28 11:07:02;;;;;;;14.85;10.85;;;17.30;99.90;;;;;;5041644;28;20136;-76
2023/06/28 11:09:28;;;;;;;18.35;12.00;;;17.30;99.90;;;;;;5042552;28;20056;-76
2023/06/28 11:11:59;;;;;;;18.65;12.35;;;17.30;99.90;;;;;;5043039;28;20045;-76
2023/06/28 11:14:25;;;;;;;16.27;11.77;;;17.20;99.90;;;;;;5043400;28;20048;-75
2023/06/28 11:16:53;;;;;;;18.75;11.27;;;17.20;99.90;;;;;;5041346;28;20037;-75
2023/06/28 11:19:22;;;;;;;15.75;11.82;;;17.20;99.90;;;;;;5040514;28;20041;-76
2023/06/28 11:21:58;;;;;;;16.52;11.80;;;17.20;99.90;;;;;;5033243;28;20053;-76
2023/06/28 11:24:33;;;;;;;20.58;11.82;;;17.30;99.90;;;;;;5039455;28;20543;-75
2023/06/28 11:26:59;;;;;;;22.35;13.85;;;17.30;99.90;;;;;;5033932;28;20045;-76
2023/06/28 11:29:24;;;;;;;18.65;12.63;;;17.30;99.90;;;;;;5039553;28;20152;-77
2023/06/28 11:31:56;;;;;;;17.50;12.00;;;17.40;99.90;;;;;;5043494;28;20049;-76
2023/06/28 11:34:23;;;;;;;17.05;11.45;;;17.40;99.90;;;;;;5042769;28;20041;-76
2023/06/28 11:36:50;;;;;;;17.80;12.18;;;17.40;99.90;;;;;;5040932;28;20052;-76
2023/06/28 11:39:21;;;;;;;16.60;12.18;;;17.50;99.90;;;;;;5040847;28;20126;-76
2023/06/28 11:41:47;;;;;;;18.25;13.18;;;17.50;99.90;;;;;;5039865;28;20103;-76
2023/06/28 11:44:14;;;;;;;18.88;12.05;;;17.50;99.90;;;;;;5043510;28;20112;-76
2023/06/28 11:46:41;;;;;;;21.63;13.93;;;17.50;99.90;;;;;;5042458;28;20045;-76
2023/06/28 11:49:07;;;;;;;17.17;12.60;;;17.50;99.90;;;;;;5039801;28;20167;-76
2023/06/28 11:51:33;;;;;;;18.90;14.18;;;17.60;99.90;;;;;;5039269;28;20596;-76
2023/06/28 11:53:59;;;;;;;21.80;14.43;;;17.60;99.90;;;;;;5041847;28;20064;-76
2023/06/28 11:56:37;;;;;;;19.63;14.05;;;17.60;99.90;;;;;;5043152;28;20048;-76
2023/06/28 11:59:17;;;;;;;22.20;15.80;;;17.60;99.90;;;;;;5042665;28;20121;-77
2023/06/28 12:01:44;;;;;;;20.05;14.48;;;17.60;99.90;;;;;;5041044;28;20053;-75
2023/06/28 12:04:17;;;;;;;22.35;15.25;;;17.70;99.90;;;;;;5023412;28;20076;-76
2023/06/28 12:06:43;;;;;;;24.20;15.95;;;17.70;99.90;;;;;;5043519;28;20074;-75
2023/06/28 12:09:24;;;;;;;20.42;15.48;;;17.60;99.90;;;;;;5044276;28;20063;-76
2023/06/28 12:12:09;;;;;;;22.33;16.60;;;17.60;99.90;;;;;;5034620;28;20045;-77
2023/06/28 12:14:42;;;;;;;23.38;16.88;;;17.60;99.90;;;;;;5043195;28;20455;-76
2023/06/28 12:17:08;;;;;;;21.08;16.27;;;17.70;99.90;;;;;;5044496;28;20045;-77
2023/06/28 12:19:35;;;;;;;23.70;17.30;;;17.70;99.90;;;;;;5039891;28;20052;-76
2023/06/28 12:22:08;;;;;;;21.42;16.80;;;17.70;99.90;;;;;;5022008;28;20045;-76
2023/06/28 12:24:35;;;;;;;24.38;17.77;;;17.70;99.90;;;;;;5041891;28;20037;-76
2023/06/28 12:27:08;;;;;;;24.35;16.83;;;17.70;99.90;;;;;;5043356;28;20079;-76
2023/06/28 12:29:36;;;;;;;22.73;18.42;;;17.70;99.90;;;;;;5043322;28;20112;-76
2023/06/28 12:32:14;;;;;;;26.13;18.95;;;17.70;99.90;;;;;;5040756;28;20041;-76
2023/06/28 12:34:48;;;;;;;24.85;19.05;;;17.70;99.90;;;;;;5041456;28;20111;-77